SAS2961 EKCH-LIRQ
Flight info
| Callsign | SAS2961 |
|---|---|
| Flight time | 1h 49m |
| Altitude | 37000 |
| Route | NEXEN T503 GIMRU DCT MICOS DCT NEBUN DCT EMBOX DCT EXITI DCT BERAS DCT LIKDA DCT BAKOR DCT GOXIN Q58 BIKTU |
| Aircraft | A319/M-SDE3FGHIRWY/LB1 |
Departure
| Time | 2026-04-22 16:12 |
|---|---|
| Airport | Copenhagen Kastrup Airport (EKCH) |
Arrival
| Time | 2026-04-22 18:01 |
|---|---|
| Airport | Florence Airport, Peretola (LIRQ) |
| Time | Latitude | Longitude | Altitude | Speed | Heading |
|---|---|---|---|---|---|
| 2026-04-22 15:36 | 55.62734 | 12.65251 | 28 ft | 0 kts | 6° |
| 2026-04-22 16:02 | 55.62730 | 12.65251 | 25 ft | 2 kts | 6° |
| 2026-04-22 16:02 | 55.62712 | 12.65247 | 27 ft | 3 kts | 6° |
| 2026-04-22 16:02 | 55.62692 | 12.65243 | 26 ft | 3 kts | 7° |
| 2026-04-22 16:03 | 55.62673 | 12.65235 | 27 ft | 3 kts | 27° |
| 2026-04-22 16:03 | 55.62657 | 12.65216 | 25 ft | 3 kts | 41° |
| 2026-04-22 16:03 | 55.62642 | 12.65193 | 28 ft | 3 kts | 32° |
| 2026-04-22 16:03 | 55.62625 | 12.65179 | 29 ft | 3 kts | 2° |
| 2026-04-22 16:04 | 55.62616 | 12.65180 | 28 ft | 1 kts | 6° |
| 2026-04-22 16:04 | 55.62615 | 12.65180 | 28 ft | 1 kts | 6° |
| 2026-04-22 16:07 | 55.62618 | 12.65181 | 28 ft | 2 kts | 7° |
| 2026-04-22 16:07 | 55.62651 | 12.65231 | 25 ft | 10 kts | 65° |
| 2026-04-22 16:08 | 55.62605 | 12.65320 | 24 ft | 14 kts | 174° |
| 2026-04-22 16:08 | 55.62498 | 12.65324 | 24 ft | 17 kts | 178° |
| 2026-04-22 16:08 | 55.62370 | 12.65328 | 24 ft | 18 kts | 179° |
| 2026-04-22 16:08 | 55.62352 | 12.65329 | 24 ft | 1 kts | 179° |
| 2026-04-22 16:09 | 55.62305 | 12.65312 | 24 ft | 13 kts | 226° |
| 2026-04-22 16:09 | 55.62224 | 12.65188 | 24 ft | 19 kts | 200° |
| 2026-04-22 16:09 | 55.62121 | 12.65077 | 27 ft | 9 kts | 211° |
| 2026-04-22 16:09 | 55.62117 | 12.65072 | 26 ft | 0 kts | 212° |
| 2026-04-22 16:10 | 55.62075 | 12.65021 | 24 ft | 20 kts | 215° |
| 2026-04-22 16:10 | 55.61911 | 12.64831 | 26 ft | 32 kts | 213° |
| 2026-04-22 16:10 | 55.61715 | 12.64607 | 24 ft | 26 kts | 213° |
| 2026-04-22 16:10 | 55.61656 | 12.64435 | 24 ft | 18 kts | 262° |
| 2026-04-22 16:11 | 55.61646 | 12.64161 | 27 ft | 19 kts | 266° |
| 2026-04-22 16:11 | 55.61603 | 12.64036 | 27 ft | 6 kts | 221° |
| 2026-04-22 16:11 | 55.61579 | 12.63997 | 26 ft | 29 kts | 223° |
| 2026-04-22 16:11 | 55.61189 | 12.63386 | 28 ft | 120 kts | 222° |
| 2026-04-22 16:12 | 55.60386 | 12.62113 | 240 ft | 174 kts | 228° |
| 2026-04-22 16:12 | 55.59483 | 12.60751 | 1175 ft | 168 kts | 227° |
| 2026-04-22 16:12 | 55.58598 | 12.59396 | 2009 ft | 172 kts | 228° |
| 2026-04-22 16:12 | 55.57644 | 12.57905 | 2571 ft | 194 kts | 229° |
| 2026-04-22 16:13 | 55.56554 | 12.56247 | 3094 ft | 222 kts | 225° |
| 2026-04-22 16:13 | 55.55236 | 12.54520 | 3804 ft | 248 kts | 220° |
| 2026-04-22 16:13 | 55.53746 | 12.52693 | 4659 ft | 270 kts | 218° |
| 2026-04-22 16:13 | 55.52158 | 12.50797 | 5802 ft | 279 kts | 217° |
| 2026-04-22 16:14 | 55.50533 | 12.48859 | 6990 ft | 285 kts | 217° |
| 2026-04-22 16:14 | 55.48874 | 12.46867 | 8087 ft | 292 kts | 217° |
| 2026-04-22 16:14 | 55.47181 | 12.44822 | 9200 ft | 298 kts | 217° |
| 2026-04-22 16:14 | 55.45451 | 12.42723 | 10294 ft | 305 kts | 217° |
| 2026-04-22 16:15 | 55.43654 | 12.40536 | 10920 ft | 327 kts | 217° |
| 2026-04-22 16:15 | 55.41721 | 12.38183 | 11514 ft | 345 kts | 216° |
| 2026-04-22 16:15 | 55.39726 | 12.35759 | 12399 ft | 352 kts | 216° |
| 2026-04-22 16:15 | 55.37700 | 12.33294 | 13356 ft | 357 kts | 216° |
| 2026-04-22 16:16 | 55.35644 | 12.30789 | 14279 ft | 362 kts | 215° |
| 2026-04-22 16:16 | 55.33556 | 12.28253 | 15112 ft | 366 kts | 215° |
| 2026-04-22 16:16 | 55.31446 | 12.25695 | 15947 ft | 371 kts | 214° |
| 2026-04-22 16:16 | 55.29308 | 12.23110 | 16781 ft | 375 kts | 214° |
| 2026-04-22 16:17 | 55.27144 | 12.20493 | 17599 ft | 380 kts | 214° |
| 2026-04-22 16:17 | 55.24983 | 12.17886 | 18423 ft | 384 kts | 214° |
| 2026-04-22 16:17 | 55.22767 | 12.15219 | 19155 ft | 389 kts | 213° |
| 2026-04-22 16:17 | 55.20521 | 12.12522 | 19870 ft | 393 kts | 213° |
| 2026-04-22 16:18 | 55.18262 | 12.09761 | 20618 ft | 398 kts | 214° |
| 2026-04-22 16:18 | 55.16014 | 12.06913 | 21397 ft | 401 kts | 215° |
| 2026-04-22 16:18 | 55.13735 | 12.03968 | 22145 ft | 404 kts | 215° |
| 2026-04-22 16:18 | 55.11497 | 12.01057 | 22857 ft | 408 kts | 215° |
| 2026-04-22 16:19 | 55.09176 | 11.98053 | 23587 ft | 412 kts | 215° |
| 2026-04-22 16:19 | 55.06888 | 11.95112 | 24202 ft | 416 kts | 214° |
| 2026-04-22 16:19 | 55.04510 | 11.92082 | 24753 ft | 420 kts | 214° |
| 2026-04-22 16:19 | 55.02163 | 11.89104 | 25284 ft | 425 kts | 213° |
| 2026-04-22 16:20 | 54.99760 | 11.86059 | 25806 ft | 430 kts | 213° |
| 2026-04-22 16:20 | 54.97332 | 11.82986 | 26330 ft | 434 kts | 212° |
| 2026-04-22 16:20 | 54.94871 | 11.79873 | 26858 ft | 439 kts | 212° |
| 2026-04-22 16:20 | 54.92394 | 11.76751 | 27409 ft | 442 kts | 211° |
| 2026-04-22 16:21 | 54.89895 | 11.73603 | 27915 ft | 446 kts | 211° |
| 2026-04-22 16:21 | 54.87363 | 11.70417 | 28424 ft | 451 kts | 210° |
| 2026-04-22 16:21 | 54.84809 | 11.67211 | 28920 ft | 455 kts | 210° |
| 2026-04-22 16:21 | 54.82227 | 11.63978 | 29415 ft | 460 kts | 210° |
| 2026-04-22 16:22 | 54.76986 | 11.57429 | 30377 ft | 469 kts | 209° |
| 2026-04-22 16:22 | 54.74326 | 11.54111 | 30769 ft | 473 kts | 209° |
| 2026-04-22 16:22 | 54.71647 | 11.50770 | 31199 ft | 477 kts | 208° |
| 2026-04-22 16:23 | 54.66238 | 11.44039 | 32043 ft | 481 kts | 208° |
| 2026-04-22 16:23 | 54.63519 | 11.40660 | 32594 ft | 481 kts | 208° |
| 2026-04-22 16:23 | 54.60804 | 11.37294 | 33133 ft | 481 kts | 207° |
| 2026-04-22 16:24 | 54.58084 | 11.33934 | 33673 ft | 481 kts | 207° |
| 2026-04-22 16:24 | 54.52649 | 11.27244 | 34753 ft | 479 kts | 207° |
| 2026-04-22 16:24 | 54.49932 | 11.23934 | 35248 ft | 478 kts | 208° |
| 2026-04-22 16:25 | 54.47212 | 11.20639 | 35779 ft | 477 kts | 208° |
| 2026-04-22 16:25 | 54.41805 | 11.14099 | 36796 ft | 474 kts | 210° |
| 2026-04-22 16:25 | 54.39109 | 11.10841 | 37195 ft | 475 kts | 210° |
| 2026-04-22 16:26 | 54.33561 | 11.04860 | 37317 ft | 466 kts | 199° |
| 2026-04-22 16:26 | 54.27488 | 11.01913 | 37316 ft | 451 kts | 180° |
| 2026-04-22 16:27 | 54.21331 | 11.02148 | 37310 ft | 441 kts | 168° |
| 2026-04-22 16:27 | 54.15221 | 11.03243 | 37313 ft | 441 kts | 168° |
| 2026-04-22 16:28 | 54.09106 | 11.04301 | 37314 ft | 442 kts | 168° |
| 2026-04-22 16:28 | 54.02991 | 11.05353 | 37318 ft | 441 kts | 168° |
| 2026-04-22 16:29 | 53.96881 | 11.06410 | 37327 ft | 442 kts | 169° |
| 2026-04-22 16:29 | 53.90757 | 11.07469 | 37333 ft | 442 kts | 168° |
| 2026-04-22 16:30 | 53.84634 | 11.08525 | 37320 ft | 443 kts | 168° |
| 2026-04-22 16:30 | 53.78498 | 11.09578 | 37316 ft | 443 kts | 168° |
| 2026-04-22 16:31 | 53.72353 | 11.10637 | 37337 ft | 444 kts | 169° |
| 2026-04-22 16:31 | 53.66244 | 11.11686 | 37316 ft | 444 kts | 169° |
| 2026-04-22 16:32 | 53.60094 | 11.12729 | 37308 ft | 444 kts | 169° |
| 2026-04-22 16:32 | 53.53937 | 11.13771 | 37305 ft | 445 kts | 169° |
| 2026-04-22 16:33 | 53.47782 | 11.14823 | 37320 ft | 445 kts | 169° |
| 2026-04-22 16:33 | 53.41616 | 11.15870 | 37323 ft | 445 kts | 169° |
| 2026-04-22 16:34 | 53.35448 | 11.16906 | 37307 ft | 446 kts | 170° |
| 2026-04-22 16:34 | 53.29274 | 11.17945 | 37315 ft | 446 kts | 169° |
| 2026-04-22 16:35 | 53.23101 | 11.18985 | 37310 ft | 446 kts | 169° |
| 2026-04-22 16:35 | 53.16920 | 11.20015 | 37308 ft | 447 kts | 170° |
| 2026-04-22 16:36 | 53.10729 | 11.21038 | 37307 ft | 447 kts | 170° |
| 2026-04-22 16:36 | 53.04535 | 11.22048 | 37317 ft | 448 kts | 171° |
| 2026-04-22 16:37 | 52.98317 | 11.22898 | 37312 ft | 448 kts | 171° |
| 2026-04-22 16:37 | 52.92097 | 11.23668 | 37312 ft | 448 kts | 171° |
| 2026-04-22 16:38 | 52.85882 | 11.24467 | 37329 ft | 448 kts | 171° |
| 2026-04-22 16:38 | 52.79670 | 11.25294 | 37334 ft | 448 kts | 171° |
| 2026-04-22 16:39 | 52.73453 | 11.26128 | 37327 ft | 448 kts | 171° |
| 2026-04-22 16:39 | 52.67240 | 11.26961 | 37327 ft | 448 kts | 171° |
| 2026-04-22 16:40 | 52.61054 | 11.27777 | 37318 ft | 449 kts | 171° |
| 2026-04-22 16:41 | 52.51701 | 11.29007 | 37317 ft | 450 kts | 171° |
| 2026-04-22 16:41 | 52.45467 | 11.29827 | 37330 ft | 450 kts | 172° |
| 2026-04-22 16:42 | 52.39220 | 11.30641 | 37322 ft | 451 kts | 172° |
| 2026-04-22 16:42 | 52.32962 | 11.31440 | 37321 ft | 451 kts | 172° |
| 2026-04-22 16:43 | 52.26705 | 11.32243 | 37325 ft | 451 kts | 172° |
| 2026-04-22 16:43 | 52.20440 | 11.33068 | 37333 ft | 451 kts | 172° |
| 2026-04-22 16:44 | 52.14165 | 11.33883 | 37320 ft | 453 kts | 172° |
| 2026-04-22 16:44 | 52.07918 | 11.34693 | 37317 ft | 453 kts | 172° |
| 2026-04-22 16:45 | 52.01610 | 11.35302 | 37335 ft | 455 kts | 175° |
| 2026-04-22 16:45 | 51.95274 | 11.35386 | 37344 ft | 456 kts | 177° |
| 2026-04-22 16:46 | 51.88913 | 11.35372 | 37331 ft | 457 kts | 176° |
| 2026-04-22 16:46 | 51.83635 | 11.35452 | 37329 ft | 457 kts | 176° |
| 2026-04-22 16:47 | 51.77275 | 11.35625 | 37329 ft | 457 kts | 176° |
| 2026-04-22 16:47 | 51.70907 | 11.35808 | 37338 ft | 458 kts | 176° |
| 2026-04-22 16:48 | 51.64533 | 11.35966 | 37331 ft | 459 kts | 176° |
| 2026-04-22 16:48 | 51.58141 | 11.36111 | 37329 ft | 459 kts | 176° |
| 2026-04-22 16:49 | 51.51755 | 11.36259 | 37323 ft | 460 kts | 176° |
| 2026-04-22 16:49 | 51.45390 | 11.36406 | 37332 ft | 460 kts | 176° |
| 2026-04-22 16:50 | 51.38985 | 11.36566 | 37325 ft | 461 kts | 176° |
| 2026-04-22 16:50 | 51.32589 | 11.36714 | 37326 ft | 461 kts | 176° |
| 2026-04-22 16:51 | 51.26166 | 11.36867 | 37329 ft | 461 kts | 176° |
| 2026-04-22 16:51 | 51.19740 | 11.37017 | 37330 ft | 462 kts | 177° |
| 2026-04-22 16:52 | 51.13312 | 11.37162 | 37332 ft | 462 kts | 177° |
| 2026-04-22 16:52 | 51.06868 | 11.37323 | 37333 ft | 462 kts | 177° |
| 2026-04-22 16:53 | 51.00437 | 11.37474 | 37343 ft | 463 kts | 177° |
| 2026-04-22 16:53 | 50.93986 | 11.37619 | 37351 ft | 463 kts | 177° |
| 2026-04-22 16:54 | 50.87545 | 11.37761 | 37345 ft | 463 kts | 177° |
| 2026-04-22 16:54 | 50.81092 | 11.37906 | 37341 ft | 463 kts | 177° |
| 2026-04-22 16:55 | 50.74642 | 11.38057 | 37337 ft | 464 kts | 177° |
| 2026-04-22 16:55 | 50.68209 | 11.38580 | 37334 ft | 463 kts | 173° |
| 2026-04-22 16:56 | 50.61790 | 11.39502 | 37337 ft | 463 kts | 172° |
| 2026-04-22 16:56 | 50.55382 | 11.40428 | 37334 ft | 463 kts | 173° |
| 2026-04-22 16:57 | 50.48961 | 11.41236 | 37327 ft | 463 kts | 173° |
| 2026-04-22 16:57 | 50.42520 | 11.41977 | 37326 ft | 463 kts | 174° |
| 2026-04-22 16:58 | 50.37177 | 11.42609 | 37325 ft | 463 kts | 173° |
| 2026-04-22 16:58 | 50.29666 | 11.43524 | 37328 ft | 463 kts | 173° |
| 2026-04-22 16:59 | 50.23231 | 11.44310 | 37317 ft | 464 kts | 173° |
| 2026-04-22 16:59 | 50.16799 | 11.45083 | 37315 ft | 464 kts | 173° |
| 2026-04-22 17:00 | 50.10355 | 11.45851 | 37312 ft | 464 kts | 173° |
| 2026-04-22 17:00 | 50.00694 | 11.46992 | 37331 ft | 465 kts | 174° |
| 2026-04-22 17:01 | 49.94236 | 11.47760 | 37323 ft | 465 kts | 174° |
| 2026-04-22 17:01 | 49.87776 | 11.48542 | 37310 ft | 466 kts | 174° |
| 2026-04-22 17:02 | 49.81315 | 11.49309 | 37293 ft | 466 kts | 174° |
| 2026-04-22 17:02 | 49.74887 | 11.50059 | 37285 ft | 466 kts | 174° |
| 2026-04-22 17:03 | 49.68411 | 11.50820 | 37283 ft | 467 kts | 174° |
| 2026-04-22 17:03 | 49.61934 | 11.51593 | 37285 ft | 467 kts | 174° |
| 2026-04-22 17:04 | 49.55461 | 11.52354 | 37281 ft | 467 kts | 174° |
| 2026-04-22 17:04 | 49.48968 | 11.53101 | 37285 ft | 467 kts | 174° |
| 2026-04-22 17:05 | 49.42482 | 11.53848 | 37284 ft | 468 kts | 174° |
| 2026-04-22 17:05 | 49.35989 | 11.54613 | 37286 ft | 468 kts | 174° |
| 2026-04-22 17:06 | 49.29495 | 11.55377 | 37281 ft | 468 kts | 174° |
| 2026-04-22 17:06 | 49.22997 | 11.56126 | 37279 ft | 468 kts | 174° |
| 2026-04-22 17:07 | 49.16502 | 11.56874 | 37263 ft | 468 kts | 174° |
| 2026-04-22 17:07 | 49.09991 | 11.57625 | 37272 ft | 469 kts | 174° |
| 2026-04-22 17:08 | 49.03496 | 11.58366 | 37276 ft | 469 kts | 174° |
| 2026-04-22 17:08 | 48.96984 | 11.59106 | 37281 ft | 469 kts | 174° |
| 2026-04-22 17:09 | 48.90463 | 11.59851 | 37270 ft | 469 kts | 175° |
| 2026-04-22 17:09 | 48.83952 | 11.60602 | 37272 ft | 469 kts | 175° |
| 2026-04-22 17:10 | 48.77486 | 11.61343 | 37274 ft | 469 kts | 175° |
| 2026-04-22 17:10 | 48.70966 | 11.62078 | 37272 ft | 470 kts | 175° |
| 2026-04-22 17:11 | 48.64440 | 11.62808 | 37278 ft | 470 kts | 175° |
| 2026-04-22 17:11 | 48.57921 | 11.63551 | 37273 ft | 470 kts | 175° |
| 2026-04-22 17:12 | 48.51395 | 11.64286 | 37266 ft | 470 kts | 175° |
| 2026-04-22 17:12 | 48.44877 | 11.65012 | 37270 ft | 470 kts | 175° |
| 2026-04-22 17:13 | 48.38351 | 11.65735 | 37269 ft | 470 kts | 175° |
| 2026-04-22 17:13 | 48.31810 | 11.66467 | 37293 ft | 471 kts | 175° |
| 2026-04-22 17:14 | 48.25284 | 11.67203 | 37285 ft | 471 kts | 175° |
| 2026-04-22 17:14 | 48.18743 | 11.67927 | 37285 ft | 471 kts | 175° |
| 2026-04-22 17:15 | 48.12207 | 11.68646 | 37278 ft | 471 kts | 175° |
| 2026-04-22 17:15 | 48.05718 | 11.69357 | 37270 ft | 471 kts | 175° |
| 2026-04-22 17:16 | 47.99186 | 11.70082 | 37271 ft | 471 kts | 175° |
| 2026-04-22 17:16 | 47.92653 | 11.70807 | 37265 ft | 471 kts | 175° |
| 2026-04-22 17:17 | 47.86114 | 11.71516 | 37261 ft | 471 kts | 175° |
| 2026-04-22 17:17 | 47.79578 | 11.72218 | 37255 ft | 471 kts | 176° |
| 2026-04-22 17:18 | 47.73032 | 11.72937 | 37260 ft | 471 kts | 176° |
| 2026-04-22 17:18 | 47.66501 | 11.73658 | 37250 ft | 471 kts | 176° |
| 2026-04-22 17:19 | 47.53437 | 11.75065 | 37235 ft | 471 kts | 176° |
| 2026-04-22 17:20 | 47.40352 | 11.76478 | 37234 ft | 471 kts | 176° |
| 2026-04-22 17:21 | 47.30566 | 11.76657 | 37222 ft | 471 kts | 183° |
| 2026-04-22 17:22 | 47.20735 | 11.76106 | 37215 ft | 471 kts | 183° |
| 2026-04-22 17:23 | 47.10897 | 11.75572 | 37188 ft | 472 kts | 183° |
| 2026-04-22 17:23 | 47.01053 | 11.75048 | 37181 ft | 472 kts | 183° |
| 2026-04-22 17:24 | 46.94487 | 11.74690 | 37152 ft | 471 kts | 184° |
| 2026-04-22 17:24 | 46.87970 | 11.74330 | 37161 ft | 471 kts | 184° |
| 2026-04-22 17:25 | 46.81444 | 11.73974 | 37147 ft | 471 kts | 184° |
| 2026-04-22 17:25 | 46.74899 | 11.73624 | 37125 ft | 470 kts | 184° |
| 2026-04-22 17:26 | 46.68361 | 11.73274 | 37120 ft | 470 kts | 184° |
| 2026-04-22 17:26 | 46.61824 | 11.72912 | 37117 ft | 470 kts | 184° |
| 2026-04-22 17:27 | 46.55298 | 11.72508 | 37093 ft | 469 kts | 185° |
| 2026-04-22 17:27 | 46.48770 | 11.72015 | 37097 ft | 469 kts | 185° |
| 2026-04-22 17:28 | 46.42255 | 11.71504 | 37102 ft | 469 kts | 185° |
| 2026-04-22 17:28 | 46.35738 | 11.71012 | 37114 ft | 469 kts | 186° |
| 2026-04-22 17:29 | 46.29219 | 11.70541 | 37113 ft | 469 kts | 186° |
| 2026-04-22 17:29 | 46.22690 | 11.70080 | 37114 ft | 470 kts | 185° |
| 2026-04-22 17:30 | 46.16154 | 11.69618 | 37127 ft | 471 kts | 186° |
| 2026-04-22 17:30 | 46.09600 | 11.69148 | 37142 ft | 471 kts | 186° |
| 2026-04-22 17:31 | 46.03044 | 11.68674 | 37152 ft | 472 kts | 186° |
| 2026-04-22 17:31 | 45.97593 | 11.68276 | 37155 ft | 472 kts | 186° |
| 2026-04-22 17:32 | 45.91012 | 11.67795 | 37153 ft | 473 kts | 186° |
| 2026-04-22 17:32 | 45.84429 | 11.67328 | 37163 ft | 474 kts | 186° |
| 2026-04-22 17:33 | 45.77834 | 11.66862 | 37168 ft | 474 kts | 186° |
| 2026-04-22 17:33 | 45.71284 | 11.66400 | 37160 ft | 474 kts | 186° |
| 2026-04-22 17:34 | 45.64679 | 11.65941 | 37163 ft | 474 kts | 186° |
| 2026-04-22 17:34 | 45.58090 | 11.65479 | 37170 ft | 474 kts | 186° |
| 2026-04-22 17:35 | 45.51500 | 11.65009 | 37167 ft | 474 kts | 187° |
| 2026-04-22 17:35 | 45.44913 | 11.64543 | 37182 ft | 474 kts | 187° |
| 2026-04-22 17:36 | 45.38367 | 11.64078 | 37183 ft | 473 kts | 187° |
| 2026-04-22 17:36 | 45.31742 | 11.63620 | 37171 ft | 473 kts | 187° |
| 2026-04-22 17:37 | 45.25214 | 11.63178 | 37174 ft | 473 kts | 187° |
| 2026-04-22 17:37 | 45.21930 | 11.62951 | 36904 ft | 472 kts | 187° |
| 2026-04-22 17:37 | 45.18630 | 11.62722 | 36023 ft | 479 kts | 187° |
| 2026-04-22 17:38 | 45.15311 | 11.62490 | 35555 ft | 475 kts | 188° |
| 2026-04-22 17:38 | 45.12019 | 11.62261 | 35026 ft | 472 kts | 188° |
| 2026-04-22 17:38 | 45.08744 | 11.62033 | 34477 ft | 471 kts | 188° |
| 2026-04-22 17:38 | 45.05479 | 11.61802 | 33881 ft | 469 kts | 188° |
| 2026-04-22 17:39 | 45.02227 | 11.61577 | 33319 ft | 466 kts | 188° |
| 2026-04-22 17:39 | 44.98999 | 11.61359 | 32761 ft | 462 kts | 189° |
| 2026-04-22 17:39 | 44.92633 | 11.60923 | 31663 ft | 454 kts | 190° |
| 2026-04-22 17:40 | 44.89497 | 11.60706 | 31132 ft | 450 kts | 190° |
| 2026-04-22 17:40 | 44.86374 | 11.60492 | 30616 ft | 447 kts | 191° |
| 2026-04-22 17:40 | 44.83280 | 11.60281 | 30080 ft | 443 kts | 191° |
| 2026-04-22 17:40 | 44.80210 | 11.60071 | 29565 ft | 438 kts | 190° |
| 2026-04-22 17:41 | 44.77184 | 11.59870 | 29076 ft | 433 kts | 191° |
| 2026-04-22 17:41 | 44.74179 | 11.59669 | 28618 ft | 429 kts | 191° |
| 2026-04-22 17:41 | 44.71220 | 11.59468 | 28157 ft | 425 kts | 191° |
| 2026-04-22 17:41 | 44.68272 | 11.59262 | 27696 ft | 422 kts | 191° |
| 2026-04-22 17:42 | 44.65423 | 11.59062 | 27249 ft | 420 kts | 191° |
| 2026-04-22 17:42 | 44.62511 | 11.58858 | 26783 ft | 417 kts | 190° |
| 2026-04-22 17:42 | 44.59618 | 11.58656 | 26281 ft | 415 kts | 191° |
| 2026-04-22 17:42 | 44.56753 | 11.58457 | 25841 ft | 411 kts | 191° |
| 2026-04-22 17:43 | 44.53899 | 11.58261 | 25346 ft | 410 kts | 191° |
| 2026-04-22 17:43 | 44.51061 | 11.58067 | 24861 ft | 407 kts | 190° |
| 2026-04-22 17:43 | 44.48227 | 11.57872 | 24353 ft | 406 kts | 189° |
| 2026-04-22 17:43 | 44.45414 | 11.57679 | 23848 ft | 405 kts | 189° |
| 2026-04-22 17:44 | 44.42635 | 11.57497 | 23277 ft | 403 kts | 188° |
| 2026-04-22 17:44 | 44.39816 | 11.57319 | 22745 ft | 399 kts | 189° |
| 2026-04-22 17:44 | 44.37089 | 11.57145 | 22253 ft | 394 kts | 189° |
| 2026-04-22 17:44 | 44.34363 | 11.56966 | 21748 ft | 391 kts | 188° |
| 2026-04-22 17:45 | 44.31661 | 11.56782 | 21241 ft | 387 kts | 188° |
| 2026-04-22 17:45 | 44.28978 | 11.56595 | 20744 ft | 384 kts | 187° |
| 2026-04-22 17:45 | 44.26322 | 11.56409 | 20282 ft | 380 kts | 187° |
| 2026-04-22 17:45 | 44.23696 | 11.56189 | 19800 ft | 376 kts | 187° |
| 2026-04-22 17:46 | 44.21094 | 11.55938 | 19328 ft | 373 kts | 187° |
| 2026-04-22 17:46 | 44.18519 | 11.55676 | 18860 ft | 370 kts | 186° |
| 2026-04-22 17:46 | 44.15962 | 11.55416 | 18379 ft | 367 kts | 185° |
| 2026-04-22 17:46 | 44.13429 | 11.55164 | 17877 ft | 363 kts | 185° |
| 2026-04-22 17:47 | 44.10926 | 11.54922 | 17415 ft | 358 kts | 185° |
| 2026-04-22 17:47 | 44.08452 | 11.54686 | 16954 ft | 354 kts | 185° |
| 2026-04-22 17:47 | 44.06005 | 11.54452 | 16501 ft | 350 kts | 185° |
| 2026-04-22 17:47 | 44.03586 | 11.54223 | 16052 ft | 347 kts | 185° |
| 2026-04-22 17:48 | 44.02007 | 11.53914 | 15755 ft | 344 kts | 194° |
| 2026-04-22 17:48 | 43.99054 | 11.52349 | 15161 ft | 336 kts | 212° |
| 2026-04-22 17:48 | 43.97172 | 11.50488 | 14744 ft | 329 kts | 223° |
| 2026-04-22 17:48 | 43.95404 | 11.48488 | 14323 ft | 327 kts | 222° |
| 2026-04-22 17:49 | 43.93639 | 11.46511 | 13883 ft | 325 kts | 221° |
| 2026-04-22 17:49 | 43.91876 | 11.44548 | 13413 ft | 323 kts | 221° |
| 2026-04-22 17:49 | 43.90150 | 11.42627 | 12989 ft | 321 kts | 221° |
| 2026-04-22 17:49 | 43.88412 | 11.40691 | 12553 ft | 319 kts | 221° |
| 2026-04-22 17:50 | 43.86684 | 11.38762 | 12131 ft | 318 kts | 221° |
| 2026-04-22 17:50 | 43.84968 | 11.36846 | 11710 ft | 315 kts | 221° |
| 2026-04-22 17:50 | 43.83267 | 11.34952 | 11292 ft | 313 kts | 221° |
| 2026-04-22 17:50 | 43.81587 | 11.33085 | 11136 ft | 307 kts | 221° |
| 2026-04-22 17:51 | 43.79929 | 11.31240 | 11114 ft | 306 kts | 221° |
| 2026-04-22 17:51 | 43.78269 | 11.29390 | 10648 ft | 306 kts | 221° |
| 2026-04-22 17:51 | 43.76612 | 11.27542 | 10225 ft | 305 kts | 221° |
| 2026-04-22 17:51 | 43.74955 | 11.25698 | 9774 ft | 304 kts | 220° |
| 2026-04-22 17:52 | 43.73311 | 11.23871 | 9411 ft | 299 kts | 220° |
| 2026-04-22 17:52 | 43.71725 | 11.22110 | 9278 ft | 289 kts | 220° |
| 2026-04-22 17:52 | 43.70176 | 11.20396 | 9054 ft | 282 kts | 220° |
| 2026-04-22 17:52 | 43.68746 | 11.18562 | 8718 ft | 279 kts | 230° |
| 2026-04-22 17:53 | 43.67449 | 11.16578 | 8407 ft | 278 kts | 230° |
| 2026-04-22 17:53 | 43.66145 | 11.14594 | 8038 ft | 278 kts | 229° |
| 2026-04-22 17:53 | 43.64858 | 11.12642 | 7593 ft | 278 kts | 229° |
| 2026-04-22 17:53 | 43.63539 | 11.10643 | 7058 ft | 280 kts | 229° |
| 2026-04-22 17:54 | 43.62522 | 11.08360 | 6377 ft | 280 kts | 257° |
| 2026-04-22 17:54 | 43.62474 | 11.05788 | 5904 ft | 264 kts | 288° |
| 2026-04-22 17:54 | 43.63285 | 11.03639 | 5383 ft | 252 kts | 312° |
| 2026-04-22 17:54 | 43.64323 | 11.01731 | 4962 ft | 245 kts | 312° |
| 2026-04-22 17:55 | 43.65056 | 11.00548 | 4672 ft | 235 kts | 325° |
| 2026-04-22 17:55 | 43.66945 | 10.99842 | 4180 ft | 206 kts | 15° |
| 2026-04-22 17:55 | 43.68146 | 11.00724 | 3830 ft | 189 kts | 46° |
| 2026-04-22 17:55 | 43.68988 | 11.02003 | 3568 ft | 174 kts | 49° |
| 2026-04-22 17:56 | 43.69786 | 11.03233 | 3329 ft | 170 kts | 48° |
| 2026-04-22 17:56 | 43.70569 | 11.04434 | 3106 ft | 167 kts | 48° |
| 2026-04-22 17:56 | 43.71341 | 11.05621 | 2872 ft | 163 kts | 49° |
| 2026-04-22 17:56 | 43.72074 | 11.06747 | 2659 ft | 154 kts | 49° |
| 2026-04-22 17:57 | 43.72778 | 11.07829 | 2456 ft | 149 kts | 49° |
| 2026-04-22 17:57 | 43.73460 | 11.08878 | 2291 ft | 144 kts | 49° |
| 2026-04-22 17:57 | 43.74096 | 11.09854 | 2071 ft | 126 kts | 52° |
| 2026-04-22 17:57 | 43.74641 | 11.10691 | 1907 ft | 112 kts | 51° |
| 2026-04-22 17:58 | 43.75138 | 11.11454 | 1762 ft | 103 kts | 49° |
| 2026-04-22 17:58 | 43.75614 | 11.12189 | 1628 ft | 103 kts | 50° |
| 2026-04-22 17:58 | 43.76094 | 11.12929 | 1484 ft | 103 kts | 50° |
| 2026-04-22 17:58 | 43.76573 | 11.13667 | 1346 ft | 102 kts | 51° |
| 2026-04-22 17:59 | 43.77045 | 11.14394 | 1195 ft | 103 kts | 51° |
| 2026-04-22 17:59 | 43.77525 | 11.15120 | 1058 ft | 105 kts | 49° |
| 2026-04-22 17:59 | 43.78008 | 11.15857 | 916 ft | 106 kts | 51° |
| 2026-04-22 17:59 | 43.78499 | 11.16630 | 775 ft | 110 kts | 49° |
| 2026-04-22 18:00 | 43.78829 | 11.17150 | 703 ft | 108 kts | 51° |
| 2026-04-22 18:00 | 43.79496 | 11.18181 | 470 ft | 106 kts | 51° |
| 2026-04-22 18:00 | 43.79986 | 11.18931 | 348 ft | 105 kts | 51° |
| 2026-04-22 18:00 | 43.80479 | 11.19700 | 176 ft | 107 kts | 49° |
| 2026-04-22 18:01 | 43.80925 | 11.20404 | 136 ft | 76 kts | 47° |
| 2026-04-22 18:01 | 43.81114 | 11.20770 | 147 ft | 21 kts | 37° |
| 2026-04-22 18:01 | 43.81189 | 11.20796 | 150 ft | 5 kts | 290° |
| 2026-04-22 18:01 | 43.81152 | 11.20737 | 140 ft | 13 kts | 229° |
| 2026-04-22 18:02 | 43.81081 | 11.20627 | 136 ft | 19 kts | 228° |
| 2026-04-22 18:02 | 43.80977 | 11.20467 | 136 ft | 23 kts | 227° |
| 2026-04-22 18:02 | 43.80867 | 11.20296 | 133 ft | 27 kts | 228° |
| 2026-04-22 18:02 | 43.80738 | 11.20097 | 134 ft | 26 kts | 228° |
| 2026-04-22 18:03 | 43.80627 | 11.20016 | 132 ft | 19 kts | 191° |
| 2026-04-22 18:03 | 43.80527 | 11.19991 | 132 ft | 6 kts | 170° |
| 2026-04-22 18:03 | 43.80483 | 11.20040 | 134 ft | 6 kts | 169° |
| 2026-04-22 18:03 | 43.80430 | 11.19980 | 131 ft | 11 kts | 214° |
| 2026-04-22 18:04 | 43.80351 | 11.19978 | 131 ft | 8 kts | 180° |
| 2026-04-22 18:04 | 43.80340 | 11.20040 | 132 ft | 7 kts | 87° |
| 2026-04-22 18:04 | 43.80340 | 11.20042 | 132 ft | 0 kts | 88° |